createdAt,value
2022-08-24T00:01:27.836Z,100.00
2022-08-24T00:03:59.922Z,96.95
2022-08-24T00:06:28.685Z,92.09
2022-08-24T00:08:57.831Z,91.72
2022-08-24T00:11:26.787Z,97.99
2022-08-24T00:13:54.406Z,92.90
2022-08-24T00:16:22.355Z,92.72
2022-08-24T00:18:50.055Z,99.22
2022-08-24T00:21:19.013Z,100.00
2022-08-24T00:23:49.579Z,100.00
2022-08-24T00:26:19.616Z,99.85
2022-08-24T00:28:57.825Z,99.08
2022-08-24T00:31:26.017Z,97.90
2022-08-24T00:33:54.460Z,100.00
2022-08-24T00:36:23.076Z,100.00
2022-08-24T00:38:50.970Z,98.26
2022-08-24T00:41:18.890Z,95.44
2022-08-24T00:43:58.733Z,95.46
2022-08-24T00:46:42.341Z,94.66
2022-08-24T00:49:25.841Z,92.45
2022-08-24T00:52:21.435Z,89.62
2022-08-24T00:55:06.285Z,92.91
2022-08-24T00:57:35.851Z,96.02
2022-08-24T01:00:18.135Z,89.95
2022-08-24T01:02:49.022Z,89.58
2022-08-24T01:05:17.927Z,93.85
2022-08-24T01:07:48.635Z,90.52
2022-08-24T01:10:25.201Z,89.34
2022-08-24T01:13:01.003Z,97.96
2022-08-24T01:15:30.597Z,91.94
2022-08-24T01:18:17.804Z,90.19
2022-08-24T01:20:46.730Z,91.18
2022-08-24T01:23:27.792Z,90.87
2022-08-24T01:26:05.190Z,90.88
2022-08-24T01:28:34.124Z,89.54
2022-08-24T01:31:04.745Z,93.16
2022-08-24T01:33:33.134Z,90.26
2022-08-24T01:36:28.540Z,91.54
2022-08-24T01:38:56.955Z,93.43
2022-08-24T01:41:28.910Z,95.17
2022-08-24T01:43:57.952Z,92.42
2022-08-24T01:46:26.766Z,100.00
2022-08-24T01:48:54.326Z,94.57
2022-08-24T01:51:21.825Z,93.84
2022-08-24T01:53:49.630Z,95.26
2022-08-24T01:56:17.300Z,94.23
2022-08-24T01:58:46.306Z,90.85
2022-08-24T02:01:15.600Z,90.73
2022-08-24T02:03:43.930Z,90.76
2022-08-24T02:06:12.233Z,89.56
2022-08-24T02:08:39.764Z,90.24
2022-08-24T02:11:08.971Z,91.76
2022-08-24T02:13:38.011Z,91.97
2022-08-24T02:16:06.673Z,90.34
2022-08-24T02:18:37.490Z,90.21
2022-08-24T02:21:08.789Z,91.51
2022-08-24T02:23:37.484Z,90.69
2022-08-24T02:26:07.079Z,92.48
2022-08-24T02:28:35.824Z,92.27
2022-08-24T02:31:06.051Z,94.41
2022-08-24T02:33:39.087Z,94.26
2022-08-24T02:36:25.418Z,90.36
2022-08-24T02:38:55.788Z,90.60
2022-08-24T02:41:24.778Z,94.98
2022-08-24T02:43:53.810Z,92.69
2022-08-24T02:46:25.425Z,90.98
2022-08-24T02:49:10.431Z,90.92
2022-08-24T02:51:44.835Z,92.44
2022-08-24T02:54:17.593Z,94.86
2022-08-24T02:56:46.440Z,94.58
2022-08-24T02:59:15.460Z,97.11
2022-08-24T03:01:43.866Z,97.10
2022-08-24T03:04:13.215Z,96.94
2022-08-24T03:06:41.117Z,96.64
2022-08-24T03:09:09.095Z,96.60
2022-08-24T03:11:37.147Z,95.18
2022-08-24T03:14:04.773Z,96.38
2022-08-24T03:16:33.548Z,96.01
2022-08-24T03:19:01.556Z,96.81
2022-08-24T03:21:30.826Z,95.26
2022-08-24T03:23:58.439Z,95.38
2022-08-24T03:26:26.177Z,95.44
2022-08-24T03:28:54.212Z,94.86
2022-08-24T03:31:21.906Z,99.22
2022-08-24T03:33:50.058Z,100.00
2022-08-24T03:36:17.840Z,95.69
2022-08-24T03:38:45.333Z,98.73
2022-08-24T03:41:13.401Z,94.43
2022-08-24T03:43:47.166Z,93.34
2022-08-24T03:46:29.296Z,97.69
2022-08-24T03:48:58.287Z,97.44
2022-08-24T03:51:28.494Z,92.17
2022-08-24T03:53:57.358Z,100.00
2022-08-24T03:56:25.924Z,99.26
2022-08-24T03:58:55.076Z,98.90
2022-08-24T04:01:23.280Z,96.23
2022-08-24T04:03:53.475Z,92.32
2022-08-24T04:06:22.128Z,92.24
2022-08-24T04:08:50.178Z,91.90
2022-08-24T04:11:20.558Z,92.69
2022-08-24T04:13:48.262Z,93.90
2022-08-24T04:16:19.059Z,93.47
2022-08-24T04:18:47.734Z,92.78
2022-08-24T04:21:35.537Z,91.47
2022-08-24T04:24:07.189Z,91.56
2022-08-24T04:26:45.472Z,90.87
2022-08-24T04:29:15.814Z,89.40
2022-08-24T04:31:44.340Z,91.29
2022-08-24T04:34:13.780Z,90.15
2022-08-24T04:36:43.689Z,89.92
2022-08-24T04:39:11.654Z,98.56
2022-08-24T04:41:42.749Z,96.61
2022-08-24T04:44:10.735Z,98.07
2022-08-24T04:46:39.265Z,93.09
2022-08-24T04:49:08.597Z,92.00
2022-08-24T04:51:36.990Z,91.37
2022-08-24T04:54:05.519Z,92.07
2022-08-24T04:56:32.985Z,96.48
2022-08-24T04:59:01.127Z,91.04
2022-08-24T05:01:29.750Z,91.52
2022-08-24T05:03:57.333Z,89.77
2022-08-24T05:06:29.044Z,89.84
2022-08-24T05:08:57.948Z,95.22
2022-08-24T05:11:26.997Z,100.00
2022-08-24T05:13:56.311Z,100.00
2022-08-24T05:16:24.833Z,99.85
2022-08-24T05:18:54.686Z,96.09
2022-08-24T05:21:23.781Z,99.13
2022-08-24T05:23:51.868Z,94.48
2022-08-24T05:26:25.472Z,91.74
2022-08-24T05:28:58.047Z,97.64
2022-08-24T05:31:28.385Z,100.00
2022-08-24T05:33:56.607Z,98.42
2022-08-24T05:36:30.284Z,98.44
2022-08-24T05:39:00.833Z,97.90
2022-08-24T05:41:29.022Z,100.00
2022-08-24T05:43:57.658Z,96.17
2022-08-24T05:46:26.261Z,100.00
2022-08-24T05:48:54.934Z,98.14
2022-08-24T05:51:22.645Z,94.65
2022-08-24T05:53:51.454Z,93.40
2022-08-24T05:56:20.119Z,90.13
2022-08-24T05:58:48.253Z,87.17
2022-08-24T06:01:21.230Z,94.96
2022-08-24T06:03:50.870Z,90.00
2022-08-24T06:06:20.118Z,87.63
2022-08-24T06:08:50.584Z,93.20
2022-08-24T06:11:30.146Z,93.14
2022-08-24T06:14:01.687Z,89.04
2022-08-24T06:16:30.705Z,86.53
2022-08-24T06:18:58.262Z,85.73
2022-08-24T06:21:28.172Z,90.88
2022-08-24T06:23:58.055Z,87.59
2022-08-24T06:26:45.143Z,85.68
2022-08-24T06:29:19.404Z,83.18
2022-08-24T06:31:54.223Z,84.52
2022-08-24T06:34:24.493Z,87.48
2022-08-24T06:36:53.809Z,84.47
2022-08-24T06:39:21.826Z,82.92
2022-08-24T06:41:50.636Z,81.17
2022-08-24T06:44:18.870Z,79.70
2022-08-24T06:46:47.330Z,79.75
2022-08-24T06:49:15.095Z,85.08
2022-08-24T06:51:42.501Z,83.03
2022-08-24T06:54:10.563Z,82.23
2022-08-24T06:56:38.668Z,80.43
2022-08-24T06:59:06.585Z,80.46
2022-08-24T07:01:35.105Z,79.85
2022-08-24T07:04:03.149Z,84.90
2022-08-24T07:06:35.011Z,85.60
2022-08-24T07:09:02.784Z,85.71
2022-08-24T07:11:32.779Z,82.24
2022-08-24T07:14:00.867Z,81.73
2022-08-24T07:16:28.744Z,82.30
2022-08-24T07:18:57.052Z,84.95
2022-08-24T07:21:25.323Z,85.44
2022-08-24T07:23:56.408Z,83.60
2022-08-24T07:26:25.700Z,77.32
2022-08-24T07:28:56.357Z,80.59
2022-08-24T07:31:24.089Z,77.31
2022-08-24T07:33:51.951Z,75.48
2022-08-24T07:36:22.754Z,78.79
2022-08-24T07:38:54.753Z,74.86
2022-08-24T07:41:56.664Z,74.00
2022-08-24T07:44:15.638Z,75.59
2022-08-24T07:46:44.110Z,70.43
2022-08-24T07:49:29.232Z,62.48
2022-08-24T07:51:59.375Z,58.27
2022-08-24T07:54:28.894Z,54.60
2022-08-24T07:56:56.573Z,52.70
2022-08-24T07:59:24.344Z,49.51
2022-08-24T08:01:53.021Z,50.13
2022-08-24T08:04:28.048Z,48.78
2022-08-24T08:09:31.311Z,48.49
2022-08-24T08:11:59.582Z,47.26
2022-08-24T08:14:27.539Z,45.21
2022-08-24T08:16:56.213Z,42.84
2022-08-24T08:19:23.840Z,43.81
2022-08-24T08:22:12.219Z,42.89
2022-08-24T08:24:44.985Z,42.74
2022-08-24T08:27:16.392Z,41.73
2022-08-24T08:29:44.231Z,42.52
2022-08-24T08:32:14.867Z,43.03
2022-08-24T08:34:43.893Z,44.05
2022-08-24T08:37:13.053Z,44.86
2022-08-24T08:39:41.153Z,44.78
2022-08-24T08:42:24.270Z,45.96
2022-08-24T08:44:52.468Z,46.13
2022-08-24T08:47:57.899Z,47.30
2022-08-24T08:50:45.526Z,47.75
2022-08-24T08:53:37.057Z,46.94
2022-08-24T08:56:26.175Z,48.91
2022-08-24T08:59:13.098Z,50.04
2022-08-24T09:01:53.561Z,48.73
2022-08-24T09:04:31.842Z,48.82
2022-08-24T09:07:19.765Z,49.24
2022-08-24T09:10:16.847Z,49.40
2022-08-24T09:12:57.107Z,47.92
2022-08-24T09:15:43.882Z,49.32
2022-08-24T09:18:46.084Z,48.79
2022-08-24T09:21:55.098Z,48.57
2022-08-24T09:24:31.097Z,48.26
2022-08-24T09:27:06.112Z,47.30
2022-08-24T09:29:57.634Z,47.72
2022-08-24T09:32:46.983Z,44.77
2022-08-24T09:35:42.934Z,47.18
2022-08-24T09:38:48.345Z,47.26
2022-08-24T09:41:41.746Z,45.82
2022-08-24T09:44:40.583Z,47.71
2022-08-24T09:47:17.500Z,46.99
2022-08-24T09:49:56.689Z,46.08
2022-08-24T09:52:36.567Z,47.29
2022-08-24T09:55:25.195Z,48.91
2022-08-24T09:58:00.961Z,48.05
2022-08-24T10:00:39.506Z,46.29
2022-08-24T10:03:34.997Z,46.61
2022-08-24T10:06:10.573Z,45.81
2022-08-24T10:08:55.509Z,45.91
2022-08-24T10:11:26.242Z,45.18
2022-08-24T10:14:31.481Z,44.07
2022-08-24T10:17:34.035Z,44.54
2022-08-24T10:21:15.227Z,45.30
2022-08-24T10:23:49.361Z,45.80
2022-08-24T10:26:20.819Z,46.11
2022-08-24T10:29:11.764Z,45.40
2022-08-24T10:31:56.012Z,46.12
2022-08-24T10:34:51.405Z,46.58
2022-08-24T10:37:31.032Z,46.17
2022-08-24T10:40:13.147Z,46.35
2022-08-24T10:43:09.164Z,45.72
2022-08-24T10:46:02.231Z,45.69
2022-08-24T10:48:30.074Z,46.85
2022-08-24T10:51:38.052Z,46.53
2022-08-24T10:54:06.541Z,46.18
2022-08-24T10:56:43.980Z,46.29
2022-08-24T10:59:19.156Z,47.18
2022-08-24T11:02:21.421Z,48.33
2022-08-24T11:04:56.527Z,48.51
2022-08-24T11:07:24.002Z,48.93
2022-08-24T11:10:00.069Z,48.76
2022-08-24T11:12:36.676Z,48.77
2022-08-24T11:15:11.253Z,48.24
2022-08-24T11:18:00.279Z,48.26
2022-08-24T11:20:50.425Z,46.67
2022-08-24T11:23:31.776Z,46.96
2022-08-24T11:26:19.383Z,55.06
2022-08-24T11:28:51.195Z,52.59
2022-08-24T11:31:33.830Z,50.76
2022-08-24T11:34:10.720Z,53.30
2022-08-24T11:36:39.637Z,54.25
2022-08-24T11:39:27.977Z,53.97
2022-08-24T11:42:27.411Z,57.56
2022-08-24T11:45:00.604Z,59.18
2022-08-24T11:47:40.620Z,59.88
2022-08-24T11:50:30.061Z,61.53
2022-08-24T11:53:12.163Z,64.54
2022-08-24T11:55:57.157Z,66.49
2022-08-24T11:58:43.957Z,67.71
2022-08-24T12:01:24.806Z,70.50
2022-08-24T12:03:55.686Z,74.29
2022-08-24T12:06:45.057Z,74.03
2022-08-24T12:09:50.285Z,72.84
2022-08-24T12:12:28.421Z,73.38
2022-08-24T12:15:17.706Z,76.61
2022-08-24T12:18:10.127Z,79.61
2022-08-24T12:20:48.278Z,82.62
2022-08-24T12:23:40.815Z,88.57
2022-08-24T12:26:17.909Z,82.95
2022-08-24T12:28:54.463Z,85.34
2022-08-24T12:31:32.415Z,90.71
2022-08-24T12:34:02.766Z,91.84
2022-08-24T12:36:39.933Z,99.87
2022-08-24T12:39:21.393Z,98.35
2022-08-24T12:41:58.458Z,91.85
2022-08-24T12:44:39.465Z,98.91
2022-08-24T12:47:07.187Z,94.94
2022-08-24T12:49:45.510Z,95.34
2022-08-24T12:52:55.765Z,100.00
2022-08-24T12:55:35.807Z,100.00
2022-08-24T12:58:32.200Z,100.00
2022-08-24T13:00:59.156Z,100.00
2022-08-24T13:03:38.908Z,99.47
2022-08-24T13:06:25.874Z,94.18
2022-08-24T13:09:07.223Z,96.76
2022-08-24T13:11:35.850Z,89.74
2022-08-24T13:14:03.459Z,89.73
2022-08-24T13:17:09.348Z,96.21
2022-08-24T13:19:43.691Z,98.51
2022-08-24T13:22:11.011Z,99.29
2022-08-24T13:25:07.025Z,99.95
2022-08-24T13:27:37.352Z,97.66
2022-08-24T13:30:08.695Z,95.17
2022-08-24T13:32:44.660Z,95.50
2022-08-24T13:35:41.875Z,93.83
2022-08-24T13:38:42.304Z,91.00
2022-08-24T13:41:13.727Z,88.27
2022-08-24T13:43:54.770Z,88.02
2022-08-24T13:46:46.541Z,86.46
2022-08-24T13:49:24.764Z,86.87
2022-08-24T13:51:58.523Z,86.44
2022-08-24T13:54:43.900Z,86.77
2022-08-24T13:57:22.008Z,87.77
2022-08-24T14:00:17.458Z,87.11
2022-08-24T14:03:00.609Z,87.37
2022-08-24T14:05:41.707Z,84.84
2022-08-24T14:08:24.513Z,85.30
2022-08-24T14:11:10.444Z,88.10
2022-08-24T14:13:59.883Z,88.83
2022-08-24T14:17:19.848Z,87.94
2022-08-24T14:19:59.547Z,88.62
2022-08-24T14:23:03.850Z,88.47
2022-08-24T14:25:33.859Z,89.57
2022-08-24T14:28:01.293Z,89.21
2022-08-24T14:30:28.627Z,90.03
2022-08-24T14:32:59.713Z,88.09
2022-08-24T14:35:43.490Z,88.38
2022-08-24T14:38:14.180Z,88.72
2022-08-24T14:41:18.408Z,87.70
2022-08-24T14:44:06.943Z,90.27
2022-08-24T14:46:49.526Z,88.67
2022-08-24T14:49:34.921Z,84.91
2022-08-24T14:52:43.988Z,90.58
2022-08-24T14:55:28.054Z,91.70
2022-08-24T14:58:00.840Z,90.44
2022-08-24T15:00:48.413Z,90.97
2022-08-24T15:03:32.995Z,89.13
2022-08-24T15:06:26.784Z,87.89
2022-08-24T15:09:11.213Z,85.84
2022-08-24T15:11:41.405Z,89.44
2022-08-24T15:14:23.585Z,86.23
2022-08-24T15:16:59.721Z,81.74
2022-08-24T15:19:43.779Z,77.50
2022-08-24T15:22:29.991Z,77.38
2022-08-24T15:25:03.819Z,77.35
2022-08-24T15:27:57.057Z,78.37
2022-08-24T15:30:34.179Z,78.15
2022-08-24T15:33:10.533Z,77.84
2022-08-24T15:35:44.079Z,75.90
2022-08-24T15:38:19.260Z,76.13
2022-08-24T15:40:48.097Z,78.24
2022-08-24T15:43:16.369Z,81.26
2022-08-24T15:45:49.511Z,81.15
2022-08-24T15:48:20.868Z,79.96
2022-08-24T15:50:48.769Z,80.31
2022-08-24T15:56:36.029Z,79.23
2022-08-24T15:59:13.481Z,84.31
2022-08-24T16:01:59.351Z,82.57
2022-08-24T16:05:01.508Z,80.31
2022-08-24T16:07:59.851Z,80.31
2022-08-24T16:10:48.154Z,77.36
2022-08-24T16:13:37.631Z,75.58
2022-08-24T16:16:12.983Z,74.62
2022-08-24T16:18:58.002Z,75.84
2022-08-24T16:21:34.513Z,77.10
2022-08-24T16:24:12.031Z,77.79
2022-08-24T16:26:56.016Z,80.16
2022-08-24T16:29:43.118Z,78.38
2022-08-24T16:32:33.739Z,82.74
2022-08-24T16:35:11.611Z,84.41
2022-08-24T16:37:39.910Z,80.74
2022-08-24T16:40:08.595Z,74.64
2022-08-24T16:42:36.754Z,76.64
2022-08-24T16:45:06.320Z,77.93
2022-08-24T16:47:33.851Z,78.81
2022-08-24T16:50:01.268Z,80.95
2022-08-24T16:52:29.229Z,75.26
2022-08-24T16:54:57.610Z,73.48
2022-08-24T16:57:29.763Z,74.40
2022-08-24T16:59:57.773Z,71.55
2022-08-24T17:02:27.781Z,71.13
2022-08-24T17:04:56.219Z,72.44
2022-08-24T17:07:26.684Z,75.01
2022-08-24T17:09:54.808Z,74.67
2022-08-24T17:12:22.651Z,71.81
2022-08-24T17:14:50.440Z,71.89
2022-08-24T17:17:23.017Z,72.68
2022-08-24T17:19:53.453Z,73.26
2022-08-24T17:22:22.292Z,76.32
2022-08-24T17:24:49.881Z,72.15
2022-08-24T17:27:18.556Z,69.89
2022-08-24T17:29:46.805Z,69.44
2022-08-24T17:32:15.020Z,76.53
2022-08-24T17:34:42.835Z,82.10
2022-08-24T17:37:10.904Z,79.78
2022-08-24T17:39:38.937Z,77.17
2022-08-24T17:42:22.294Z,78.96
2022-08-24T17:44:54.944Z,81.96
2022-08-24T17:47:22.744Z,82.68
2022-08-24T17:49:50.271Z,80.00
2022-08-24T17:52:17.861Z,80.79
2022-08-24T17:54:45.882Z,82.93
2022-08-24T17:57:14.534Z,85.56
2022-08-24T17:59:42.635Z,86.27
2022-08-24T18:02:15.255Z,86.56
2022-08-24T18:04:44.076Z,86.46
2022-08-24T18:07:13.623Z,86.72
2022-08-24T18:09:48.497Z,88.12
2022-08-24T18:12:18.340Z,92.63
2022-08-24T18:14:46.003Z,89.47
2022-08-24T18:17:28.459Z,85.39
2022-08-24T18:19:58.399Z,87.37
2022-08-24T18:22:25.900Z,87.99
2022-08-24T18:24:53.439Z,87.45
2022-08-24T18:27:27.140Z,92.04
2022-08-24T18:30:02.591Z,92.72
2022-08-24T18:32:33.476Z,97.12
2022-08-24T18:35:02.801Z,99.50
2022-08-24T18:37:30.242Z,95.60
2022-08-24T18:39:58.106Z,89.50
2022-08-24T18:42:27.653Z,90.61
2022-08-24T18:44:55.198Z,89.60
2022-08-24T18:47:23.029Z,89.55
2022-08-24T18:49:50.466Z,90.05
2022-08-24T18:52:19.639Z,88.78
2022-08-24T18:54:49.469Z,90.23
2022-08-24T18:57:18.019Z,89.16
2022-08-24T18:59:46.200Z,89.84
2022-08-24T19:02:35.802Z,90.07
2022-08-24T19:05:06.711Z,90.03
2022-08-24T19:07:40.954Z,93.16
2022-08-24T19:10:10.346Z,93.40
2022-08-24T19:12:42.675Z,92.13
2022-08-24T19:15:34.524Z,92.22
2022-08-24T19:18:05.506Z,92.54
2022-08-24T19:20:34.551Z,94.97
2022-08-24T19:23:08.013Z,92.64
2022-08-24T19:25:55.061Z,94.71
2022-08-24T19:28:23.600Z,95.90
2022-08-24T19:30:55.502Z,94.37
2022-08-24T19:33:26.772Z,95.63
2022-08-24T19:35:54.825Z,95.21
2022-08-24T19:38:25.714Z,95.01
2022-08-24T19:40:56.539Z,94.16
2022-08-24T19:43:28.486Z,94.44
2022-08-24T19:46:05.700Z,93.11
2022-08-24T19:48:35.994Z,91.23
2022-08-24T19:51:05.847Z,88.80
2022-08-24T19:53:36.167Z,86.35
2022-08-24T19:56:05.634Z,84.48
2022-08-24T19:58:38.807Z,83.75
2022-08-24T20:01:13.431Z,85.11
2022-08-24T20:03:41.404Z,85.23
2022-08-24T20:06:09.578Z,85.84
2022-08-24T20:08:37.417Z,86.69
2022-08-24T20:11:06.357Z,86.37
2022-08-24T20:13:34.970Z,87.02
2022-08-24T20:16:10.629Z,89.38
2022-08-24T20:18:39.278Z,90.89
2022-08-24T20:21:08.186Z,97.80
2022-08-24T20:23:36.260Z,99.05
2022-08-24T20:26:06.334Z,98.78
2022-08-24T20:28:40.185Z,99.73
2022-08-24T20:31:08.104Z,99.70
2022-08-24T20:33:35.948Z,100.00
2022-08-24T20:36:04.130Z,100.00
2022-08-24T20:38:32.385Z,99.95
2022-08-24T20:41:01.502Z,100.00
2022-08-24T20:43:29.277Z,100.00
2022-08-24T20:45:57.093Z,100.00
2022-08-24T20:48:28.092Z,100.00
2022-08-24T20:50:55.804Z,100.00
2022-08-24T20:53:23.666Z,100.00
2022-08-24T20:55:51.467Z,100.00
2022-08-24T20:58:21.339Z,98.11
2022-08-24T21:00:49.443Z,96.96
2022-08-24T21:03:18.856Z,91.96
2022-08-24T21:05:48.664Z,91.69
2022-08-24T21:08:16.199Z,92.81
2022-08-24T21:10:44.774Z,98.93
2022-08-24T21:13:12.332Z,100.00
2022-08-24T21:15:41.546Z,100.00
2022-08-24T21:18:10.837Z,100.00
2022-08-24T21:20:39.025Z,98.46
2022-08-24T21:23:12.342Z,98.62
2022-08-24T21:25:40.048Z,97.47
2022-08-24T21:28:07.565Z,97.67
2022-08-24T21:30:35.440Z,96.98
2022-08-24T21:33:24.571Z,95.43
2022-08-24T21:35:55.025Z,93.94
2022-08-24T21:38:25.273Z,92.29
2022-08-24T21:40:53.678Z,92.66
2022-08-24T21:43:21.740Z,93.87
2022-08-24T21:45:52.796Z,93.30
2022-08-24T21:48:20.708Z,92.52
2022-08-24T21:50:48.793Z,92.65
2022-08-24T21:53:16.776Z,92.24
2022-08-24T21:55:44.615Z,94.70
2022-08-24T21:58:12.355Z,99.98
2022-08-24T22:00:39.887Z,100.00
2022-08-24T22:03:08.792Z,98.12
2022-08-24T22:05:36.495Z,100.00
2022-08-24T22:08:04.179Z,100.00
2022-08-24T22:10:32.229Z,100.00
2022-08-24T22:13:03.811Z,100.00
2022-08-24T22:15:33.269Z,100.00
2022-08-24T22:18:01.441Z,100.00
2022-08-24T22:20:28.957Z,95.86
2022-08-24T22:22:58.466Z,93.12
2022-08-24T22:25:26.114Z,92.05
2022-08-24T22:27:53.643Z,92.80
2022-08-24T22:30:21.522Z,93.08
2022-08-24T22:32:49.054Z,93.95
2022-08-24T22:35:16.627Z,94.52
2022-08-24T22:37:44.378Z,94.86
2022-08-24T22:40:12.830Z,95.69
2022-08-24T22:42:41.019Z,94.39
2022-08-24T22:45:09.958Z,91.54
2022-08-24T22:47:38.631Z,88.00
2022-08-24T22:50:07.142Z,86.20
2022-08-24T22:52:34.860Z,84.21
2022-08-24T22:55:03.113Z,83.73
2022-08-24T22:57:30.533Z,84.09
2022-08-24T22:59:58.345Z,83.74
2022-08-24T23:02:25.829Z,85.74
2022-08-24T23:04:53.808Z,90.61
2022-08-24T23:07:21.553Z,90.07
2022-08-24T23:09:49.286Z,90.49
2022-08-24T23:12:20.678Z,90.03
2022-08-24T23:14:50.486Z,88.72
2022-08-24T23:17:18.987Z,87.14
2022-08-24T23:20:02.027Z,85.58
2022-08-24T23:22:35.006Z,84.53
2022-08-24T23:25:03.077Z,80.08
2022-08-24T23:27:32.638Z,79.05
2022-08-24T23:30:08.505Z,85.87
2022-08-24T23:32:36.260Z,90.51
2022-08-24T23:35:04.694Z,89.74
2022-08-24T23:37:32.258Z,89.20
2022-08-24T23:40:00.062Z,90.30
2022-08-24T23:42:27.522Z,90.34
2022-08-24T23:44:55.508Z,91.10
2022-08-24T23:47:23.274Z,91.16
2022-08-24T23:49:51.124Z,92.80
2022-08-24T23:52:26.412Z,93.17
2022-08-24T23:55:11.572Z,95.79
2022-08-24T23:57:45.170Z,98.49
